35.5°F
Current conditions from King Hill
Updated every 5 minutes
 
  Sunday April 20, 2014

Station Historical Data
Daily Summary for August 31, 2011 Units:  Metric    English   Both
« Previous Day
Next Day »
Daily Weekly Monthly Yearly Custom
  High: Low: Average:
Temperature: 24.8 °C 12.4 °C 18.3 °C
Dew Point: 17.4 °C 10.9 °C 13.9 °C
Humidity: 96% 46% 77%
Wind Speed: 8km/h 0km/h 2.7km/h
Wind Gust: 14.5km/h - -
Wind- - WSW
Pressure: 1022.2 hPa 1018.2 hPa -
Precipitation: 0.3 mm    
Historical Graphs
 
 
Tabular Data for August 31, 2011
Time Temperature Dew Point Pressure Wind Wind Speed Wind Gust Humidity Daily Rainfall
00:00 18.2 °C 13.7 °C 1018.2 hPa Calm   12.9 km/h 75% 0.5 mm
00:05 18.2 °C 13.5 °C 1018.2 hPa SW 3.2 km/h 12.9 km/h 74% 0 mm
00:10 18.3 °C 13.8 °C 1018.2 hPa SW 1.6 km/h 12.9 km/h 75% 0 mm
00:15 18.3 °C 13.6 °C 1018.2 hPa SW 3.2 km/h 12.9 km/h 74% 0 mm
00:20 18.3 °C 13.3 °C 1018.2 hPa Calm   8 km/h 73% 0 mm
00:25 18.3 °C 13.2 °C 1018.2 hPa WSW 4.8 km/h 14.5 km/h 72% 0 mm
00:30 18.3 °C 12.9 °C 1018.2 hPa Calm   14.5 km/h 71% 0 mm
00:35 18.3 °C 12.9 °C 1018.2 hPa Calm   11.3 km/h 71% 0 mm
00:40 18.2 °C 12.8 °C 1018.5 hPa WSW 1.6 km/h 8 km/h 71% 0 mm
00:45 18.1 °C 12.7 °C 1018.5 hPa SW 4.8 km/h 9.7 km/h 71% 0 mm
00:50 18.1 °C 12.7 °C 1018.5 hPa SW 1.6 km/h 11.3 km/h 71% 0 mm
00:55 17.9 °C 12.8 °C 1018.5 hPa SW 1.6 km/h 11.3 km/h 72% 0 mm
01:00 17.8 °C 12.9 °C 1018.5 hPa SW 1.6 km/h 8 km/h 73% 0 mm
01:05 17.7 °C 12.8 °C 1018.5 hPa SW 1.6 km/h 8 km/h 73% 0 mm
01:10 17.7 °C 12.6 °C 1018.5 hPa WSW 1.6 km/h 8 km/h 72% 0 mm
01:15 17.6 °C 12.7 °C 1018.5 hPa WSW 1.6 km/h 9.7 km/h 73% 0 mm
01:25 17.6 °C 12.4 °C 1018.5 hPa WSW 4.8 km/h 11.3 km/h 72% 0 mm
01:35 17.4 °C 12.5 °C 1018.8 hPa SW 4.8 km/h 14.5 km/h 73% 0 mm
01:40 17.4 °C 12.5 °C 1018.8 hPa WSW 3.2 km/h 14.5 km/h 73% 0 mm
01:45 17.4 °C 12.5 °C 1018.8 hPa SW 1.6 km/h 11.3 km/h 73% 0 mm
01:50 17.3 °C 12.7 °C 1018.8 hPa Calm   9.7 km/h 74% 0 mm
01:55 17.2 °C 12.5 °C 1018.8 hPa Calm   4.8 km/h 74% 0 mm
02:00 16.9 °C 12.9 °C 1018.8 hPa SW 1.6 km/h 4.8 km/h 77% 0 mm
02:05 16.7 °C 12.5 °C 1018.5 hPa SW 1.6 km/h 11.3 km/h 76% 0 mm
02:10 16.4 °C 12.4 °C 1018.8 hPa Calm   11.3 km/h 77% 0 mm
02:15 16.3 °C 12.4 °C 1018.8 hPa Calm   6.4 km/h 78% 0 mm
02:20 15.9 °C 12.3 °C 1018.8 hPa Calm   3.2 km/h 79% 0 mm
02:25 15.6 °C 12.4 °C 1018.8 hPa Calm   1.6 km/h 81% 0 mm
02:30 15.3 °C 12.1 °C 1018.8 hPa SW 1.6 km/h 6.4 km/h 81% 0 mm
02:35 15.1 °C 12 °C 1018.8 hPa Calm   6.4 km/h 82% 0 mm
02:40 15 °C 12.1 °C 1018.8 hPa Calm   3.2 km/h 83% 0 mm
02:50 14.8 °C 12.1 °C 1018.8 hPa Calm   4.8 km/h 84% 0 mm
02:55 14.8 °C 12.3 °C 1018.8 hPa Calm   3.2 km/h 85% 0 mm
03:00 14.7 °C 12.2 °C 1018.8 hPa Calm   3.2 km/h 85% 0 mm
03:05 14.7 °C 12.2 °C 1019.2 hPa Calm   4.8 km/h 85% 0 mm
03:10 14.6 °C 12.1 °C 1019.2 hPa Calm   4.8 km/h 85% 0 mm
03:15 14.3 °C 11.8 °C 1019.2 hPa Calm     85% 0 mm
03:20 14.1 °C 11.8 °C 1019.2 hPa Calm     86% 0 mm
03:25 13.9 °C 11.8 °C 1019.5 hPa Calm     87% 0 mm
03:30 13.7 °C 11.6 °C 1019.5 hPa Calm     87% 0 mm
03:35 13.7 °C 11.7 °C 1019.5 hPa Calm     88% 0 mm
03:45 13.7 °C 11.9 °C 1019.5 hPa Calm     89% 0 mm
03:50 13.7 °C 11.9 °C 1019.5 hPa Calm     89% 0 mm
03:55 13.7 °C 12.1 °C 1019.5 hPa Calm     90% 0 mm
04:00 13.9 °C 12.5 °C 1019.5 hPa Calm     91% 0 mm
04:05 14.1 °C 12.6 °C 1019.5 hPa Calm   8 km/h 91% 0.3 mm
04:10 14.2 °C 12.7 °C 1019.5 hPa Calm   8 km/h 91% 0.3 mm
04:15 14.3 °C 13.1 °C 1019.5 hPa Calm     92% 0.3 mm
04:20 14.5 °C 13.2 °C 1019.5 hPa Calm     92% 0.3 mm
04:25 14.5 °C 13.2 °C 1019.5 hPa Calm     92% 0.3 mm
04:30 14.6 °C 13.3 °C 1019.5 hPa Calm     92% 0.3 mm
04:35 14.7 °C 13.6 °C 1019.9 hPa Calm     93% 0.3 mm
04:40 14.9 °C 13.8 °C 1019.9 hPa Calm     93% 0.3 mm
04:45 15 °C 13.9 °C 1019.9 hPa Calm     93% 0.3 mm
04:50 14.9 °C 13.8 °C 1019.5 hPa Calm     93% 0.3 mm
04:55 14.8 °C 13.7 °C 1019.9 hPa SW 1.6 km/h 3.2 km/h 93% 0.3 mm
05:00 14.7 °C 13.6 °C 1019.9 hPa Calm   3.2 km/h 93% 0.3 mm
05:05 14.7 °C 13.6 °C 1019.9 hPa Calm     93% 0.3 mm
05:10 14.6 °C 13.3 °C 1019.9 hPa Calm     92% 0.3 mm
05:15 14.6 °C 13.3 °C 1019.9 hPa Calm     92% 0.3 mm
05:20 14.5 °C 13.2 °C 1019.9 hPa Calm     92% 0.3 mm
05:25 14.3 °C 12.9 °C 1019.9 hPa Calm     91% 0.3 mm
05:30 14.2 °C 12.7 °C 1019.9 hPa Calm     91% 0.3 mm
05:35 13.8 °C 12.4 °C 1020.2 hPa Calm     91% 0.3 mm
05:40 13.7 °C 12.3 °C 1020.2 hPa Calm     91% 0.3 mm
05:45 13.5 °C 12.1 °C 1019.9 hPa Calm     91% 0.3 mm
05:50 13.3 °C 11.9 °C 1020.2 hPa Calm     91% 0.3 mm
05:55 13.2 °C 11.7 °C 1020.2 hPa Calm     91% 0.3 mm
06:00 13.1 °C 11.6 °C 1020.2 hPa Calm     91% 0.3 mm
06:05 12.9 °C 11.5 °C 1020.2 hPa Calm     91% 0.3 mm
06:10 12.8 °C 11.3 °C 1020.2 hPa Calm     91% 0.3 mm
06:20 12.7 °C 11.4 °C 1020.5 hPa Calm     92% 0.3 mm
06:25 12.7 °C 11.4 °C 1020.5 hPa Calm     92% 0.3 mm
06:30 12.7 °C 11.4 °C 1020.5 hPa Calm     92% 0.3 mm
06:35 12.7 °C 11.4 °C 1020.5 hPa Calm     92% 0.3 mm
06:40 12.7 °C 11.6 °C 1020.9 hPa Calm     93% 0.3 mm
06:45 12.8 °C 11.7 °C 1020.9 hPa Calm     93% 0.3 mm
06:50 12.9 °C 11.8 °C 1020.9 hPa Calm     93% 0.3 mm
06:55 13 °C 12.1 °C 1020.9 hPa Calm     94% 0.3 mm
07:00 13.2 °C 12.2 °C 1020.9 hPa Calm     94% 0.3 mm
07:05 13.4 °C 12.6 °C 1021.2 hPa Calm     95% 0.3 mm
07:10 13.7 °C 12.9 °C 1021.2 hPa Calm     95% 0.3 mm
07:15 14.2 °C 13.4 °C 1021.2 hPa Calm     95% 0.3 mm
07:20 14.4 °C 13.7 °C 1021.2 hPa Calm     95% 0.3 mm
07:25 14.9 °C 14.3 °C 1021.2 hPa Calm     96% 0.3 mm
07:30 15.1 °C 14.5 °C 1021.2 hPa Calm     96% 0.3 mm
07:35 15.3 °C 14.7 °C 1021.2 hPa Calm     96% 0.3 mm
07:40 15.5 °C 14.9 °C 1021.2 hPa Calm     96% 0.3 mm
07:45 15.6 °C 15 °C 1021.2 hPa Calm     96% 0.3 mm
07:50 15.7 °C 15.1 °C 1021.2 hPa Calm     96% 0.3 mm
07:55 15.9 °C 15.3 °C 1021.2 hPa Calm     96% 0.3 mm
08:00 16 °C 15.4 °C 1021.6 hPa Calm     96% 0.3 mm
08:05 16.1 °C 15.5 °C 1021.6 hPa Calm     96% 0.3 mm
08:15 16.4 °C 15.8 °C 1021.6 hPa Calm     96% 0.3 mm
08:20 16.6 °C 15.9 °C 1021.6 hPa Calm     96% 0.3 mm
08:25 16.7 °C 16.1 °C 1021.6 hPa Calm     96% 0.3 mm
08:30 16.8 °C 16 °C 1021.6 hPa Calm     95% 0.3 mm
08:35 17.1 °C 16.4 °C 1021.6 hPa Calm     96% 0.3 mm
08:40 17.3 °C 16.5 °C 1021.6 hPa Calm   1.6 km/h 95% 0.3 mm
08:45 17.9 °C 17.3 °C 1021.9 hPa Calm   1.6 km/h 96% 0.3 mm
08:50 18.4 °C 17.4 °C 1021.9 hPa WSW 1.6 km/h 6.4 km/h 94% 0.3 mm
08:55 18.6 °C 16.3 °C 1021.9 hPa NW 6.4 km/h 9.7 km/h 87% 0.3 mm
09:00 18.9 °C 16.4 °C 1021.9 hPa NW 1.6 km/h 11.3 km/h 85% 0.3 mm
09:05 19.5 °C 16.7 °C 1021.9 hPa NW 3.2 km/h 11.3 km/h 84% 0.3 mm
09:10 19.8 °C 16.1 °C 1021.6 hPa NW 4.8 km/h 9.7 km/h 79% 0.3 mm
09:15 20.1 °C 16.8 °C 1021.6 hPa Calm   9.7 km/h 81% 0.3 mm
09:20 20.3 °C 16.8 °C 1021.9 hPa Calm   6.4 km/h 80% 0.3 mm
09:25 20.5 °C 16.7 °C 1021.9 hPa NW 1.6 km/h 6.4 km/h 79% 0.3 mm
09:30 20.6 °C 16.7 °C 1021.9 hPa Calm   6.4 km/h 78% 0.3 mm
09:35 20.7 °C 16.1 °C 1021.9 hPa NW 6.4 km/h 11.3 km/h 75% 0.3 mm
09:40 20.5 °C 16.3 °C 1021.9 hPa NW 1.6 km/h 11.3 km/h 77% 0.3 mm
09:45 20.5 °C 16.9 °C 1021.9 hPa Calm   11.3 km/h 80% 0.3 mm
09:50 20.4 °C 16 °C 1021.9 hPa NW 4.8 km/h 11.3 km/h 76% 0.3 mm
09:55 20.3 °C 16.2 °C 1021.9 hPa Calm   8 km/h 77% 0.3 mm
10:00 20.4 °C 16.5 °C 1021.9 hPa NW 6.4 km/h 11.3 km/h 78% 0.3 mm
10:05 20.4 °C 16.5 °C 1022.2 hPa Calm   12.9 km/h 78% 0.3 mm
10:10 20.6 °C 16.6 °C 1022.2 hPa WNW 1.6 km/h 12.9 km/h 78% 0.3 mm
10:15 20.7 °C 16.9 °C 1022.2 hPa Calm   8 km/h 79% 0.3 mm
10:20 20.8 °C 16.6 °C 1022.2 hPa NNW 1.6 km/h 8 km/h 77% 0.3 mm
10:25 20.9 °C 16.8 °C 1022.2 hPa Calm   8 km/h 77% 0.3 mm
10:30 21.4 °C 16.8 °C 1022.2 hPa NNW 1.6 km/h 6.4 km/h 75% 0.3 mm
10:35 21.7 °C 16.8 °C 1022.2 hPa Calm   6.4 km/h 74% 0.3 mm
10:40 21.8 °C 17.4 °C 1022.2 hPa Calm   4.8 km/h 76% 0.3 mm
10:45 21.9 °C 16.4 °C 1022.2 hPa NNW 3.2 km/h 8 km/h 71% 0.3 mm
10:50 21.9 °C 16.4 °C 1022.2 hPa North 3.2 km/h 8 km/h 71% 0.3 mm
11:00 21.6 °C 16.8 °C 1022.2 hPa Calm   8 km/h 74% 0.3 mm
11:05 21.7 °C 16.4 °C 1022.2 hPa NW 3.2 km/h 11.3 km/h 72% 0.3 mm
11:10 21.9 °C 16.4 °C 1022.2 hPa Calm   11.3 km/h 71% 0.3 mm
11:15 22.2 °C 16.7 °C 1022.2 hPa NW 1.6 km/h 8 km/h 71% 0.3 mm
11:20 22.3 °C 17 °C 1022.2 hPa Calm   8 km/h 72% 0.3 mm
11:25 22.7 °C 17.2 °C 1022.2 hPa Calm   4.8 km/h 71% 0.3 mm
11:30 22.8 °C 17 °C 1022.2 hPa NW 3.2 km/h 8 km/h 70% 0.3 mm
11:35 22.8 °C 17.1 °C 1022.2 hPa Calm   9.7 km/h 70% 0.3 mm
11:40 22.7 °C 16.3 °C 1022.2 hPa NW 1.6 km/h 9.7 km/h 67% 0.3 mm
11:45 22.7 °C 16.5 °C 1022.2 hPa WNW 4.8 km/h 8 km/h 68% 0.3 mm
11:50 22.1 °C 15.9 °C 1022.2 hPa West 1.6 km/h 9.7 km/h 68% 0.3 mm
11:55 21.8 °C 16.7 °C 1022.2 hPa Calm   9.7 km/h 73% 0.3 mm
12:00 21.7 °C 16 °C 1022.2 hPa Calm   8 km/h 70% 0.3 mm
12:05 21.9 °C 16.4 °C 1022.2 hPa WNW 3.2 km/h 8 km/h 71% 0.3 mm
12:10 22.3 °C 17.1 °C 1022.2 hPa WNW 6.4 km/h 11.3 km/h 72% 0.3 mm
12:15 22.4 °C 16.5 °C 1022.2 hPa WNW 3.2 km/h 11.3 km/h 69% 0.3 mm
12:20 22.8 °C 16.8 °C 1022.2 hPa Calm   8 km/h 69% 0.3 mm
12:25 22.8 °C 16.2 °C 1021.9 hPa Calm   6.4 km/h 66% 0.3 mm
12:30 23.1 °C 17.3 °C 1021.9 hPa WNW 3.2 km/h 8 km/h 70% 0.3 mm
12:40 23.4 °C 16.7 °C 1021.9 hPa Calm   11.3 km/h 66% 0.3 mm
12:45 23.7 °C 17.4 °C 1021.9 hPa WNW 1.6 km/h 6.4 km/h 68% 0.3 mm
12:50 23.8 °C 15.6 °C 1021.9 hPa WNW 1.6 km/h 6.4 km/h 60% 0.3 mm
12:55 23.8 °C 16.3 °C 1021.9 hPa Calm   6.4 km/h 63% 0.3 mm
13:05 23.9 °C 15.2 °C 1021.9 hPa WNW 8 km/h 12.9 km/h 58% 0.3 mm
13:10 24.1 °C 16.1 °C 1021.9 hPa Calm   12.9 km/h 61% 0.3 mm
13:15 24.3 °C 17.1 °C 1021.9 hPa NW 1.6 km/h 11.3 km/h 64% 0.3 mm
13:20 24.5 °C 16.2 °C 1021.9 hPa NW 1.6 km/h 11.3 km/h 60% 0.3 mm
13:30 24.5 °C 15.4 °C 1021.9 hPa Calm   1.6 km/h 57% 0.3 mm
13:35 24.4 °C 13.3 °C 1021.9 hPa Calm   1.6 km/h 50% 0.3 mm
13:40 24.4 °C 12.7 °C 1021.9 hPa Calm   9.7 km/h 48% 0.3 mm
13:45 24.6 °C 13.5 °C 1021.9 hPa North 1.6 km/h 11.3 km/h 50% 0.3 mm
13:50 24.8 °C 13.7 °C 1021.9 hPa Calm   11.3 km/h 50% 0.3 mm
13:55 24.8 °C 13.3 °C 1021.9 hPa NW 1.6 km/h 11.3 km/h 49% 0.3 mm
14:00 24.5 °C 12.8 °C 1021.9 hPa North 1.6 km/h 11.3 km/h 48% 0.3 mm
14:05 24.6 °C 14.3 °C 1021.6 hPa NW 1.6 km/h 8 km/h 53% 0.3 mm
14:10 24.7 °C 12.3 °C 1021.9 hPa NE 3.2 km/h 11.3 km/h 46% 0.3 mm
14:15 24.5 °C 12.1 °C 1021.9 hPa NE 3.2 km/h 12.9 km/h 46% 0.3 mm
14:20 24.2 °C 12.2 °C 1021.6 hPa Calm   12.9 km/h 47% 0.3 mm
14:25 24.2 °C 13.4 °C 1021.6 hPa NE 1.6 km/h 11.3 km/h 51% 0.3 mm
14:30 24.1 °C 11.8 °C 1021.6 hPa WNW 1.6 km/h 11.3 km/h 46% 0.3 mm
14:35 24.2 °C 12.5 °C 1021.6 hPa Calm   11.3 km/h 48% 0.3 mm
14:40 24 °C 13.6 °C 1021.6 hPa Calm   9.7 km/h 52% 0.3 mm
14:45 23.6 °C 12.8 °C 1021.6 hPa NW 1.6 km/h 9.7 km/h 51% 0.3 mm
14:50 23.3 °C 12.9 °C 1021.6 hPa Calm   8 km/h 52% 0.3 mm
14:55 23.3 °C 12.3 °C 1021.6 hPa NE 1.6 km/h 6.4 km/h 50% 0.3 mm
15:00 23.3 °C 14 °C 1021.6 hPa Calm   6.4 km/h 56% 0.3 mm
15:05 23.2 °C 13.4 °C 1021.6 hPa Calm   9.7 km/h 54% 0.3 mm
15:10 23.2 °C 14.5 °C 1021.6 hPa Calm   9.7 km/h 58% 0.3 mm
15:15 23.1 °C 14.6 °C 1021.2 hPa NW 1.6 km/h 9.7 km/h 59% 0.3 mm
15:20 23.1 °C 14.9 °C 1021.2 hPa Calm   9.7 km/h 60% 0.3 mm
15:30 24.1 °C 13.6 °C 1021.2 hPa Calm   1.6 km/h 52% 0.3 mm
15:35 24.4 °C 14.5 °C 1021.2 hPa Calm   9.7 km/h 54% 0.3 mm
15:40 24.4 °C 13.9 °C 1021.2 hPa Calm   9.7 km/h 52% 0.3 mm
15:45 24.4 °C 13.3 °C 1021.2 hPa Calm   1.6 km/h 50% 0.3 mm
15:50 24.3 °C 13.3 °C 1021.2 hPa NNW 1.6 km/h 4.8 km/h 50% 0.3 mm
15:55 24.2 °C 13.1 °C 1020.9 hPa Calm   4.8 km/h 50% 0.3 mm
16:00 24.1 °C 13.7 °C 1020.9 hPa Calm   4.8 km/h 52% 0.3 mm
16:05 24.1 °C 13.9 °C 1020.9 hPa Calm   1.6 km/h 53% 0.3 mm
16:10 23.9 °C 15.7 °C 1020.9 hPa Calm   1.6 km/h 60% 0.3 mm
16:15 23.5 °C 13.4 °C 1020.9 hPa NNE 1.6 km/h 4.8 km/h 53% 0.3 mm
16:20 23.1 °C 13.3 °C 1020.9 hPa Calm   4.8 km/h 54% 0.3 mm
16:25 22.9 °C 13.4 °C 1020.9 hPa Calm   1.6 km/h 55% 0.3 mm
16:30 22.8 °C 14.9 °C 1020.9 hPa Calm   1.6 km/h 61% 0.3 mm
16:35 22.7 °C 14.5 °C 1020.9 hPa Calm     60% 0.3 mm
16:40 22.7 °C 13.5 °C 1020.9 hPa NNE 3.2 km/h 6.4 km/h 56% 0.3 mm
16:45 22.7 °C 13.4 °C 1020.9 hPa Calm   6.4 km/h 56% 0.3 mm
16:50 22.6 °C 15.4 °C 1020.9 hPa Calm   1.6 km/h 64% 0.3 mm
16:55 22.5 °C 16.1 °C 1020.9 hPa Calm     67% 0.3 mm
17:00 22.4 °C 15.8 °C 1020.9 hPa Calm   1.6 km/h 66% 0.3 mm
17:05 22.6 °C 15.7 °C 1020.9 hPa Calm   3.2 km/h 65% 0.3 mm
17:10 22.6 °C 15.9 °C 1020.9 hPa Calm   3.2 km/h 66% 0.3 mm
17:15 22.4 °C 15.8 °C 1020.9 hPa Calm   3.2 km/h 66% 0.3 mm
17:20 22.3 °C 15.4 °C 1020.9 hPa Calm   4.8 km/h 65% 0.3 mm
17:25 22.2 °C 14.8 °C 1020.9 hPa Calm   4.8 km/h 63% 0.3 mm
17:30 22.2 °C 15.8 °C 1020.9 hPa Calm   4.8 km/h 67% 0.3 mm
17:35 22.3 °C 14.2 °C 1020.5 hPa NE 1.6 km/h 6.4 km/h 60% 0.3 mm
17:40 22.1 °C 12.9 °C 1020.5 hPa NNE 1.6 km/h 11.3 km/h 56% 0.3 mm
17:45 22.1 °C 13.4 °C 1020.9 hPa NNE 1.6 km/h 11.3 km/h 58% 0.3 mm
17:50 22.1 °C 14.2 °C 1020.9 hPa Calm   4.8 km/h 61% 0.3 mm
17:55 21.9 °C 13.8 °C 1020.9 hPa Calm   1.6 km/h 60% 0.3 mm
18:00 21.9 °C 15 °C 1020.9 hPa Calm   1.6 km/h 65% 0.3 mm
18:05 21.8 °C 14.7 °C 1020.9 hPa Calm     64% 0.3 mm
18:10 21.4 °C 15.3 °C 1020.9 hPa Calm   1.6 km/h 68% 0.3 mm
18:15 21.1 °C 15.7 °C 1020.9 hPa Calm   1.6 km/h 71% 0.3 mm
18:20 20.8 °C 15.3 °C 1020.9 hPa Calm     71% 0.3 mm
18:25 20.4 °C 15.4 °C 1020.9 hPa Calm     73% 0.3 mm
18:30 20.1 °C 15.3 °C 1020.9 hPa Calm     74% 0.3 mm
18:35 19.6 °C 15 °C 1020.9 hPa Calm     75% 0.3 mm
18:45 18.7 °C 14.3 °C 1020.9 hPa Calm     76% 0.3 mm
18:50 18.4 °C 14.3 °C 1020.9 hPa Calm     77% 0.3 mm
18:55 18.1 °C 14.2 °C 1020.9 hPa Calm     78% 0.3 mm
19:00 17.8 °C 14.3 °C 1020.9 hPa Calm     80% 0.3 mm
19:05 17.6 °C 14.1 °C 1020.9 hPa Calm     80% 0.3 mm
19:10 17.3 °C 14.1 °C 1020.9 hPa Calm     81% 0.3 mm
19:15 17.2 °C 13.9 °C 1020.9 hPa Calm     81% 0.3 mm
19:20 16.9 °C 13.5 °C 1020.9 hPa Calm     80% 0.3 mm
19:25 16.8 °C 13.3 °C 1020.9 hPa Calm     80% 0.3 mm
19:30 16.7 °C 13.4 °C 1020.9 hPa Calm     81% 0.3 mm
19:35 16.4 °C 13.4 °C 1021.2 hPa Calm     82% 0.3 mm
19:40 16.3 °C 13.2 °C 1021.2 hPa Calm     82% 0.3 mm
19:45 16.1 °C 13.2 °C 1020.9 hPa Calm     83% 0.3 mm
19:50 15.9 °C 13.2 °C 1021.2 hPa Calm     84% 0.3 mm
19:55 15.8 °C 13.1 °C 1021.2 hPa Calm     84% 0.3 mm
20:00 15.8 °C 13.3 °C 1021.2 hPa Calm     85% 0.3 mm
20:10 15.8 °C 13.3 °C 1021.2 hPa Calm   1.6 km/h 85% 0.3 mm
20:15 15.8 °C 13.3 °C 1021.2 hPa Calm   1.6 km/h 85% 0.3 mm
20:20 15.8 °C 13.3 °C 1021.2 hPa Calm   1.6 km/h 85% 0.3 mm
20:25 15.8 °C 13.5 °C 1021.2 hPa Calm     86% 0.3 mm
20:35 15.7 °C 13.3 °C 1021.2 hPa Calm     86% 0.3 mm
20:45 15.4 °C 13.1 °C 1021.2 hPa Calm     86% 0.3 mm
20:55 15.2 °C 12.8 °C 1021.6 hPa Calm     86% 0.3 mm
21:00 15 °C 12.8 °C 1021.6 hPa Calm     87% 0.3 mm
21:05 15 °C 12.8 °C 1021.6 hPa Calm     87% 0.3 mm
21:10 14.8 °C 12.7 °C 1021.6 hPa Calm     87% 0.3 mm
21:15 14.7 °C 12.5 °C 1021.6 hPa Calm     87% 0.3 mm
21:20 14.4 °C 12.3 °C 1021.6 hPa Calm     87% 0.3 mm
21:25 14.4 °C 12.4 °C 1021.6 hPa Calm   1.6 km/h 88% 0.3 mm
21:30 14.4 °C 12.6 °C 1021.6 hPa Calm   1.6 km/h 89% 0.3 mm
21:35 14.3 °C 12.5 °C 1021.6 hPa Calm     89% 0.3 mm
21:40 14.2 °C 12.4 °C 1021.6 hPa Calm     89% 0.3 mm
21:45 14.3 °C 12.7 °C 1021.6 hPa Calm   1.6 km/h 90% 0.3 mm
21:50 14.3 °C 12.7 °C 1021.6 hPa Calm   1.6 km/h 90% 0.3 mm
21:55 14.4 °C 12.8 °C 1021.2 hPa Calm   3.2 km/h 90% 0.3 mm
22:00 14.4 °C 12.8 °C 1021.6 hPa Calm   3.2 km/h 90% 0.3 mm
22:05 14.5 °C 12.9 °C 1021.6 hPa Calm   3.2 km/h 90% 0.3 mm
22:10 14.6 °C 13 °C 1021.6 hPa Calm   3.2 km/h 90% 0.3 mm
22:15 14.7 °C 13.1 °C 1021.6 hPa Calm     90% 0.3 mm
22:20 14.7 °C 13.1 °C 1021.6 hPa Calm     90% 0.3 mm
22:30 14.3 °C 12.7 °C 1021.6 hPa Calm     90% 0.3 mm
22:35 14.2 °C 12.6 °C 1021.6 hPa Calm     90% 0.3 mm
22:40 14.2 °C 12.6 °C 1021.6 hPa Calm     90% 0.3 mm
22:45 14.1 °C 12.5 °C 1021.6 hPa Calm     90% 0.3 mm
22:50 14 °C 12.4 °C 1021.6 hPa Calm     90% 0.3 mm
22:55 13.8 °C 12.2 °C 1021.6 hPa Calm     90% 0.3 mm
23:00 13.7 °C 12.1 °C 1021.6 hPa Calm     90% 0.3 mm
23:05 13.6 °C 11.9 °C 1021.6 hPa Calm     90% 0.3 mm
23:10 13.4 °C 11.8 °C 1021.9 hPa Calm     90% 0.3 mm
23:15 13.3 °C 11.7 °C 1021.9 hPa Calm     90% 0.3 mm
23:20 13.2 °C 11.8 °C 1021.9 hPa Calm     91% 0.3 mm
23:25 13.1 °C 11.5 °C 1021.9 hPa Calm     90% 0.3 mm
23:30 13 °C 11.6 °C 1021.9 hPa Calm     91% 0.3 mm
23:40 12.9 °C 11.4 °C 1021.9 hPa Calm     91% 0.3 mm
23:45 12.8 °C 11.3 °C 1021.9 hPa Calm     91% 0.3 mm
23:50 12.5 °C 11.1 °C 1021.9 hPa Calm     91% 0.3 mm
23:55 12.4 °C 10.9 °C 1021.9 hPa Calm     91% 0.3 mm
Westford Weather
Compliments of Weather Underground

 
 
Current Radar Loop:

Copyright © WestfordWeather.net 2007-2014. All rights reserved.